createdAt,value
2023-04-27T00:01:11.211Z,102337.63
2023-04-27T00:03:38.612Z,102334.03
2023-04-27T00:06:05.680Z,102341.91
2023-04-27T00:08:32.432Z,102340.97
2023-04-27T00:10:59.593Z,102342.66
2023-04-27T00:13:26.980Z,102340.84
2023-04-27T00:15:53.843Z,102345.16
2023-04-27T00:18:20.482Z,102339.84
2023-04-27T00:20:47.035Z,102345.06
2023-04-27T00:23:13.714Z,102341.44
2023-04-27T00:25:40.322Z,102355.44
2023-04-27T00:28:06.821Z,102351.03
2023-04-27T00:30:33.361Z,102349.13
2023-04-27T00:32:59.905Z,102346.50
2023-04-27T00:35:26.564Z,102333.28
2023-04-27T00:37:56.099Z,102343.72
2023-04-27T00:40:22.685Z,102335.69
2023-04-27T00:42:49.198Z,102341.81
2023-04-27T00:45:15.838Z,102344.41
2023-04-27T00:47:44.292Z,102344.34
2023-04-27T00:50:12.047Z,102350.41
2023-04-27T00:52:39.132Z,102347.69
2023-04-27T00:55:06.125Z,102356.41
2023-04-27T00:57:33.579Z,102346.72
2023-04-27T01:00:01.608Z,102347.44
2023-04-27T01:02:30.306Z,102349.19
2023-04-27T01:04:57.730Z,102342.97
2023-04-27T01:07:26.554Z,102342.91
2023-04-27T01:09:53.235Z,102336.69
2023-04-27T01:12:19.789Z,102339.28
2023-04-27T01:14:46.319Z,102327.81
2023-04-27T01:17:13.988Z,102327.75
2023-04-27T01:19:40.641Z,102320.66
2023-04-27T01:22:07.228Z,102326.78
2023-04-27T01:24:33.883Z,102330.25
2023-04-27T01:27:01.626Z,102337.13
2023-04-27T01:29:28.324Z,102346.66
2023-04-27T01:31:54.912Z,102345.75
2023-04-27T01:34:21.788Z,102346.56
2023-04-27T01:36:48.705Z,102346.53
2023-04-27T01:39:16.408Z,102341.22
2023-04-27T01:41:43.021Z,102332.38
2023-04-27T01:44:09.595Z,102340.31
2023-04-27T01:46:36.206Z,102330.59
2023-04-27T01:49:03.034Z,102327.13
2023-04-27T01:51:29.663Z,102316.41
2023-04-27T01:53:56.327Z,102313.78
2023-04-27T01:56:22.861Z,102320.72
2023-04-27T01:58:49.461Z,102319.75
2023-04-27T02:01:16.123Z,102310.91
2023-04-27T02:03:42.844Z,102319.72
2023-04-27T02:06:09.516Z,102317.00
2023-04-27T02:08:36.220Z,102321.38
2023-04-27T02:11:03.404Z,102317.00
2023-04-27T02:13:29.977Z,102325.63
2023-04-27T02:15:56.545Z,102323.81
2023-04-27T02:18:24.227Z,102332.59
2023-04-27T02:20:50.781Z,102328.16
2023-04-27T02:23:17.411Z,102334.25
2023-04-27T02:25:46.680Z,102324.47
2023-04-27T02:28:14.681Z,102326.28
2023-04-27T02:30:41.845Z,102328.72
2023-04-27T02:33:08.496Z,102326.94
2023-04-27T02:35:35.051Z,102319.97
2023-04-27T02:38:01.581Z,102321.75
2023-04-27T02:40:28.336Z,102319.06
2023-04-27T02:42:54.990Z,102311.06
2023-04-27T02:45:21.569Z,102317.25
2023-04-27T02:47:49.786Z,102306.53
2023-04-27T02:50:16.397Z,102302.16
2023-04-27T02:52:42.970Z,102309.16
2023-04-27T02:55:09.717Z,102305.59
2023-04-27T02:57:37.815Z,102302.03
2023-04-27T03:00:07.498Z,102301.94
2023-04-27T03:02:34.226Z,102304.53
2023-04-27T03:05:01.483Z,102306.19
2023-04-27T03:07:28.062Z,102317.63
2023-04-27T03:09:54.593Z,102316.63
2023-04-27T03:12:21.167Z,102306.94
2023-04-27T03:14:47.841Z,102315.66
2023-04-27T03:17:14.396Z,102321.69
2023-04-27T03:19:41.199Z,102318.97
2023-04-27T03:22:07.783Z,102326.84
2023-04-27T03:24:34.395Z,102328.53
2023-04-27T03:27:02.145Z,102331.09
2023-04-27T03:29:28.694Z,102332.78
2023-04-27T03:31:55.381Z,102331.00
2023-04-27T03:34:23.478Z,102324.81
2023-04-27T03:36:50.873Z,102325.66
2023-04-27T03:39:17.500Z,102322.09
2023-04-27T03:41:44.108Z,102327.25
2023-04-27T03:44:10.812Z,102317.59
2023-04-27T03:46:37.438Z,102321.94
2023-04-27T03:49:03.993Z,102329.75
2023-04-27T03:51:32.539Z,102327.03
2023-04-27T03:54:00.038Z,102320.91
2023-04-27T03:56:26.692Z,102333.97
2023-04-27T03:58:53.299Z,102321.66
2023-04-27T04:01:19.897Z,102329.50
2023-04-27T04:03:47.794Z,102323.38
2023-04-27T04:06:14.576Z,102326.81
2023-04-27T04:08:42.201Z,102318.03
2023-04-27T04:11:08.865Z,102322.28
2023-04-27T04:13:36.076Z,102327.53
2023-04-27T04:16:04.588Z,102327.53
2023-04-27T04:18:31.271Z,102316.00
2023-04-27T04:20:58.262Z,102321.28
2023-04-27T04:23:24.821Z,102325.69
2023-04-27T04:25:51.437Z,102338.84
2023-04-27T04:28:18.142Z,102341.44
2023-04-27T04:30:45.112Z,102344.03
2023-04-27T04:33:12.116Z,102347.53
2023-04-27T04:35:39.537Z,102352.78
2023-04-27T04:38:06.098Z,102351.00
2023-04-27T04:40:32.799Z,102348.44
2023-04-27T04:42:59.321Z,102351.03
2023-04-27T04:45:26.966Z,102355.47
2023-04-27T04:47:54.482Z,102358.06
2023-04-27T04:50:21.511Z,102364.25
2023-04-27T04:52:48.042Z,102366.09
2023-04-27T04:55:16.096Z,102360.75
2023-04-27T04:57:42.870Z,102366.09
2023-04-27T05:00:13.712Z,102360.06
2023-04-27T05:02:41.388Z,102360.97
2023-04-27T05:05:09.029Z,102358.44
2023-04-27T05:07:36.171Z,102368.13
2023-04-27T05:10:03.519Z,102357.75
2023-04-27T05:12:30.045Z,102346.47
2023-04-27T05:14:56.637Z,102354.44
2023-04-27T05:17:23.326Z,102351.88
2023-04-27T05:19:51.077Z,102353.75
2023-04-27T05:22:17.744Z,102351.38
2023-04-27T05:24:44.529Z,102353.22
2023-04-27T05:27:13.882Z,102349.00
2023-04-27T05:29:40.984Z,102346.63
2023-04-27T05:32:07.640Z,102366.91
2023-04-27T05:34:34.189Z,102363.59
2023-04-27T05:37:01.208Z,102363.72
2023-04-27T05:39:28.081Z,102368.31
2023-04-27T05:41:54.611Z,102366.75
2023-04-27T05:44:21.429Z,102364.31
2023-04-27T05:46:48.006Z,102365.41
2023-04-27T05:49:14.828Z,102368.25
2023-04-27T05:51:41.654Z,102366.66
2023-04-27T05:54:08.467Z,102356.34
2023-04-27T05:56:37.752Z,102359.25
2023-04-27T05:59:04.447Z,102362.06
2023-04-27T06:01:31.645Z,102364.06
2023-04-27T06:04:01.352Z,102367.81
2023-04-27T06:06:31.809Z,102362.72
2023-04-27T06:08:58.428Z,102368.22
2023-04-27T06:11:25.023Z,102363.19
2023-04-27T06:13:51.550Z,102369.66
2023-04-27T06:16:18.152Z,102364.78
2023-04-27T06:18:44.777Z,102361.69
2023-04-27T06:21:11.375Z,102354.31
2023-04-27T06:23:38.272Z,102354.97
2023-04-27T06:26:05.068Z,102352.91
2023-04-27T06:28:34.748Z,102362.19
2023-04-27T06:31:03.367Z,102363.53
2023-04-27T06:33:30.126Z,102356.06
2023-04-27T06:35:57.056Z,102351.09
2023-04-27T06:38:23.743Z,102352.28
2023-04-27T06:40:51.894Z,102351.66
2023-04-27T06:43:18.689Z,102350.94
2023-04-27T06:45:45.364Z,102344.91
2023-04-27T06:48:12.079Z,102345.91
2023-04-27T06:50:38.656Z,102346.88
2023-04-27T06:53:05.269Z,102343.38
2023-04-27T06:55:31.796Z,102343.38
2023-04-27T06:57:58.350Z,102345.13
2023-04-27T07:00:25.412Z,102344.13
2023-04-27T07:02:52.028Z,102344.06
2023-04-27T07:05:19.062Z,102339.56
2023-04-27T07:07:45.593Z,102346.50
2023-04-27T07:10:12.118Z,102341.00
2023-04-27T07:12:39.698Z,102333.69
2023-04-27T07:15:07.154Z,102337.97
2023-04-27T07:17:34.196Z,102344.06
2023-04-27T07:20:06.132Z,102346.53
2023-04-27T07:22:33.521Z,102348.97
2023-04-27T07:25:00.136Z,102346.03
2023-04-27T07:27:27.307Z,102343.16
2023-04-27T07:29:54.696Z,102341.81
2023-04-27T07:32:22.071Z,102340.69
2023-04-27T07:34:53.504Z,102337.66
2023-04-27T07:37:21.273Z,102326.50
2023-04-27T07:39:50.126Z,102333.41
2023-04-27T07:42:16.804Z,102326.03
2023-04-27T07:44:43.601Z,102324.06
2023-04-27T07:47:10.634Z,102323.03
2023-04-27T07:49:37.470Z,102324.66
2023-04-27T07:52:04.790Z,102327.28
2023-04-27T07:54:31.509Z,102335.72
2023-04-27T07:56:58.234Z,102331.78
2023-04-27T07:59:24.857Z,102321.59
2023-04-27T08:01:51.719Z,102327.84
2023-04-27T08:04:21.598Z,102322.13
2023-04-27T08:06:48.884Z,102321.91
2023-04-27T08:09:16.211Z,102325.41
2023-04-27T08:11:42.889Z,102325.91
2023-04-27T08:14:13.496Z,102320.22
2023-04-27T08:16:46.363Z,102325.28
2023-04-27T08:19:13.245Z,102322.63
2023-04-27T08:21:40.089Z,102325.91
2023-04-27T08:24:07.204Z,102323.72
2023-04-27T08:26:35.218Z,102323.44
2023-04-27T08:29:09.029Z,102327.47
2023-04-27T08:31:46.633Z,102323.00
2023-04-27T08:34:13.309Z,102321.94
2023-04-27T08:36:40.135Z,102321.81
2023-04-27T08:39:09.087Z,102325.44
2023-04-27T08:41:35.634Z,102309.06
2023-04-27T08:44:02.275Z,102310.19
2023-04-27T08:46:29.056Z,102311.06
2023-04-27T08:48:56.538Z,102308.19
2023-04-27T08:51:24.201Z,102316.75
2023-04-27T08:53:54.994Z,102308.31
2023-04-27T08:56:25.800Z,102310.25
2023-04-27T08:58:52.700Z,102309.94
2023-04-27T09:01:21.725Z,102315.84
2023-04-27T09:03:48.426Z,102308.44
2023-04-27T09:06:15.518Z,102308.16
2023-04-27T09:08:47.046Z,102312.59
2023-04-27T09:11:16.097Z,102310.47
2023-04-27T09:13:47.091Z,102310.25
2023-04-27T09:16:17.198Z,102314.78
2023-04-27T09:18:43.975Z,102308.81
2023-04-27T09:21:10.898Z,102309.31
2023-04-27T09:23:41.817Z,102300.59
2023-04-27T09:26:08.502Z,102302.69
2023-04-27T09:28:41.209Z,102295.78
2023-04-27T09:31:09.479Z,102298.41
2023-04-27T09:33:36.822Z,102288.03
2023-04-27T09:36:06.351Z,102286.19
2023-04-27T09:38:34.185Z,102293.94
2023-04-27T09:41:01.629Z,102282.38
2023-04-27T09:43:30.711Z,102277.56
2023-04-27T09:45:58.956Z,102277.28
2023-04-27T09:48:26.792Z,102278.00
2023-04-27T09:50:53.903Z,102285.75
2023-04-27T09:53:28.422Z,102288.56
2023-04-27T09:56:50.488Z,102278.97
2023-04-27T09:59:55.518Z,102278.50
2023-04-27T10:02:25.826Z,102277.34
2023-04-27T10:05:26.744Z,102273.72
2023-04-27T10:07:54.222Z,102273.72
2023-04-27T10:10:20.816Z,102276.84
2023-04-27T10:13:02.661Z,102271.63
2023-04-27T10:15:30.121Z,102274.78
2023-04-27T10:18:04.690Z,102283.44
2023-04-27T10:20:33.722Z,102281.63
2023-04-27T10:23:00.864Z,102273.41
2023-04-27T10:25:40.355Z,102282.00
2023-04-27T10:28:09.846Z,102276.84
2023-04-27T10:30:39.145Z,102274.53
2023-04-27T10:33:10.483Z,102274.44
2023-04-27T10:35:38.128Z,102263.41
2023-04-27T10:38:21.043Z,102264.59
2023-04-27T10:41:02.511Z,102268.66
2023-04-27T10:43:31.273Z,102258.81
2023-04-27T10:46:12.803Z,102271.34
2023-04-27T10:48:41.070Z,102272.78
2023-04-27T10:51:08.120Z,102271.69
2023-04-27T10:53:38.597Z,102265.53
2023-04-27T10:56:08.610Z,102258.66
2023-04-27T11:01:08.197Z,102265.34
2023-04-27T11:03:35.140Z,102260.53
2023-04-27T11:06:06.204Z,102253.13
2023-04-27T11:08:34.162Z,102254.63
2023-04-27T11:11:01.574Z,102255.97
2023-04-27T11:13:28.610Z,102250.94
2023-04-27T11:15:59.767Z,102240.25
2023-04-27T11:18:31.648Z,102232.34
2023-04-27T11:21:16.194Z,102228.16
2023-04-27T11:23:43.230Z,102229.97
2023-04-27T11:26:12.810Z,102225.78
2023-04-27T11:28:39.408Z,102219.16
2023-04-27T11:31:07.034Z,102210.16
2023-04-27T11:33:35.817Z,102220.53
2023-04-27T11:36:03.482Z,102217.03
2023-04-27T11:38:34.025Z,102209.00
2023-04-27T11:41:04.466Z,102213.72
2023-04-27T11:43:31.824Z,102207.31
2023-04-27T11:46:02.140Z,102208.38
2023-04-27T11:48:29.000Z,102207.41
2023-04-27T11:51:01.554Z,102211.47
2023-04-27T11:53:36.950Z,102212.81
2023-04-27T11:56:05.966Z,102202.47
2023-04-27T11:58:37.386Z,102213.66
2023-04-27T12:01:05.512Z,102204.72
2023-04-27T12:03:32.903Z,102200.56
2023-04-27T12:06:11.702Z,102200.72
2023-04-27T12:08:46.447Z,102205.22
2023-04-27T12:11:13.137Z,102193.66
2023-04-27T12:13:40.418Z,102205.78
2023-04-27T12:16:07.408Z,102198.88
2023-04-27T12:18:34.023Z,102195.53
2023-04-27T12:21:02.998Z,102195.41
2023-04-27T12:23:29.913Z,102193.78
2023-04-27T12:25:56.534Z,102194.44
2023-04-27T12:28:23.400Z,102192.03
2023-04-27T12:30:50.489Z,102192.03
2023-04-27T12:33:17.225Z,102177.69
2023-04-27T12:35:43.857Z,102179.34
2023-04-27T12:38:10.504Z,102179.72
2023-04-27T12:40:37.687Z,102171.13
2023-04-27T12:43:04.371Z,102179.31
2023-04-27T12:45:31.021Z,102166.97
2023-04-27T12:50:27.347Z,102171.56
2023-04-27T12:52:54.016Z,102165.25
2023-04-27T12:55:32.121Z,102167.72
2023-04-27T12:58:00.768Z,102173.13
2023-04-27T13:00:27.602Z,102172.34
2023-04-27T13:02:54.392Z,102160.81
2023-04-27T13:05:22.360Z,102157.94
2023-04-27T13:07:49.111Z,102155.22
2023-04-27T13:10:15.879Z,102152.56
2023-04-27T13:12:42.503Z,102157.94
2023-04-27T13:15:10.149Z,102158.19
2023-04-27T13:17:37.084Z,102161.50
2023-04-27T13:20:03.916Z,102143.38
2023-04-27T13:22:30.564Z,102152.25
2023-04-27T13:24:57.171Z,102148.97
2023-04-27T13:27:25.296Z,102142.72
2023-04-27T13:29:52.073Z,102142.06
2023-04-27T13:32:18.739Z,102127.47
2023-04-27T13:34:45.675Z,102122.69
2023-04-27T13:37:12.228Z,102118.50
2023-04-27T13:39:38.792Z,102121.19
2023-04-27T13:42:06.207Z,102114.81
2023-04-27T13:44:32.905Z,102122.16
2023-04-27T13:46:59.541Z,102125.66
2023-04-27T13:49:26.366Z,102116.91
2023-04-27T13:51:53.017Z,102108.03
2023-04-27T13:54:21.396Z,102109.06
2023-04-27T13:56:48.365Z,102110.03
2023-04-27T13:59:16.684Z,102102.22
2023-04-27T14:01:43.880Z,102104.84
2023-04-27T14:04:10.628Z,102103.06
2023-04-27T14:06:37.451Z,102108.47
2023-04-27T14:09:04.799Z,102093.44
2023-04-27T14:11:35.433Z,102089.19
2023-04-27T14:14:08.794Z,102089.09
2023-04-27T14:16:35.289Z,102082.00
2023-04-27T14:19:01.883Z,102084.78
2023-04-27T14:21:28.395Z,102080.31
2023-04-27T14:23:54.967Z,102084.75
2023-04-27T14:26:21.977Z,102074.94
2023-04-27T14:28:48.487Z,102072.06
2023-04-27T14:31:15.117Z,102071.09
2023-04-27T14:33:41.656Z,102067.72
2023-04-27T14:36:08.466Z,102065.03
2023-04-27T14:38:35.022Z,102070.44
2023-04-27T14:41:03.666Z,102060.50
2023-04-27T14:43:30.254Z,102067.44
2023-04-27T14:46:08.004Z,102064.84
2023-04-27T14:48:38.802Z,102060.34
2023-04-27T14:51:06.333Z,102057.66
2023-04-27T14:53:33.236Z,102052.53
2023-04-27T14:55:59.743Z,102056.97
2023-04-27T14:58:26.364Z,102039.16
2023-04-27T15:00:52.912Z,102033.91
2023-04-27T15:03:20.135Z,102030.28
2023-04-27T15:05:46.900Z,102035.78
2023-04-27T15:08:13.402Z,102030.44
2023-04-27T15:10:40.087Z,102039.47
2023-04-27T15:13:06.737Z,102032.56
2023-04-27T15:15:33.277Z,102037.97
2023-04-27T15:17:59.952Z,102036.34
2023-04-27T15:20:26.910Z,102031.22
2023-04-27T15:22:53.553Z,102029.41
2023-04-27T15:25:20.223Z,102032.97
2023-04-27T15:27:46.964Z,102021.34
2023-04-27T15:30:14.547Z,102013.44
2023-04-27T15:32:41.529Z,102015.34
2023-04-27T15:35:08.769Z,102008.19
2023-04-27T15:37:36.685Z,102009.19
2023-04-27T15:40:04.314Z,102008.31
2023-04-27T15:42:30.979Z,102015.44
2023-04-27T15:44:57.911Z,102004.03
2023-04-27T15:47:24.467Z,102002.31
2023-04-27T15:49:57.630Z,101992.66
2023-04-27T15:52:26.928Z,101988.38
2023-04-27T15:54:53.562Z,101987.72
2023-04-27T15:57:20.167Z,101984.19
2023-04-27T15:59:46.666Z,101985.22
2023-04-27T16:02:13.680Z,101986.22
2023-04-27T16:04:40.488Z,101989.75
2023-04-27T16:07:07.428Z,101990.56
2023-04-27T16:09:34.185Z,101982.72
2023-04-27T16:12:01.823Z,101983.91
2023-04-27T16:14:28.330Z,101983.88
2023-04-27T16:16:56.075Z,101979.47
2023-04-27T16:19:23.522Z,101973.06
2023-04-27T16:21:50.295Z,101973.31
2023-04-27T16:24:16.808Z,101966.16
2023-04-27T16:26:43.363Z,101969.88
2023-04-27T16:29:09.905Z,101962.13
2023-04-27T16:31:36.482Z,101956.94
2023-04-27T16:34:03.961Z,101961.47
2023-04-27T16:36:32.850Z,101960.81
2023-04-27T16:39:00.196Z,101959.19
2023-04-27T16:41:26.866Z,101954.06
2023-04-27T16:43:53.685Z,101944.25
2023-04-27T16:46:20.474Z,101940.75
2023-04-27T16:48:47.085Z,101936.22
2023-04-27T16:51:14.083Z,101925.69
2023-04-27T16:53:41.301Z,101926.63
2023-04-27T16:56:08.092Z,101915.13
2023-04-27T16:58:36.080Z,101908.97
2023-04-27T17:01:02.672Z,101911.75
2023-04-27T17:03:30.013Z,101920.78
2023-04-27T17:05:56.738Z,101914.53
2023-04-27T17:08:23.305Z,101914.59
2023-04-27T17:10:50.151Z,101912.97
2023-04-27T17:13:17.293Z,101914.72
2023-04-27T17:15:43.943Z,101913.94
2023-04-27T17:18:10.785Z,101925.75
2023-04-27T17:20:38.356Z,101932.13
2023-04-27T17:23:06.994Z,101933.06
2023-04-27T17:25:33.504Z,101929.59
2023-04-27T17:28:01.490Z,101935.97
2023-04-27T17:30:28.407Z,101932.44
2023-04-27T17:32:55.043Z,101929.06
2023-04-27T17:35:21.737Z,101921.13
2023-04-27T17:37:48.267Z,101915.91
2023-04-27T17:40:19.143Z,101924.91
2023-04-27T17:42:45.764Z,101914.31
2023-04-27T17:45:12.560Z,101918.00
2023-04-27T17:47:39.159Z,101918.16
2023-04-27T17:50:06.407Z,101921.00
2023-04-27T17:52:32.970Z,101922.03
2023-04-27T17:54:59.579Z,101913.16
2023-04-27T17:57:26.314Z,101921.34
2023-04-27T17:59:52.856Z,101922.41
2023-04-27T18:02:19.615Z,101924.25
2023-04-27T18:04:46.507Z,101917.28
2023-04-27T18:07:13.061Z,101915.56
2023-04-27T18:09:39.553Z,101916.50
2023-04-27T18:12:10.803Z,101904.19
2023-04-27T18:14:38.693Z,101900.75
2023-04-27T18:17:05.407Z,101906.25
2023-04-27T18:19:31.974Z,101901.13
2023-04-27T18:21:58.573Z,101900.31
2023-04-27T18:24:25.214Z,101899.53
2023-04-27T18:26:51.982Z,101896.06
2023-04-27T18:29:18.629Z,101901.53
2023-04-27T18:31:46.031Z,101901.59
2023-04-27T18:34:13.102Z,101900.81
2023-04-27T18:36:39.727Z,101903.59
2023-04-27T18:39:06.293Z,101897.41
2023-04-27T18:41:32.916Z,101902.03
2023-04-27T18:44:05.974Z,101901.22
2023-04-27T18:46:33.206Z,101904.78
2023-04-27T18:49:01.110Z,101900.41
2023-04-27T18:51:28.806Z,101913.78
2023-04-27T18:53:56.047Z,101905.91
2023-04-27T18:56:22.843Z,101908.66
2023-04-27T18:58:49.987Z,101902.50
2023-04-27T19:01:20.384Z,101904.41
2023-04-27T19:03:47.135Z,101911.53
2023-04-27T19:06:14.581Z,101902.69
2023-04-27T19:08:41.866Z,101894.81
2023-04-27T19:11:08.522Z,101898.38
2023-04-27T19:13:35.169Z,101902.00
2023-04-27T19:16:02.004Z,101894.00
2023-04-27T19:18:28.630Z,101899.41
2023-04-27T19:20:55.313Z,101898.63
2023-04-27T19:23:21.910Z,101898.66
2023-04-27T19:25:48.594Z,101890.72
2023-04-27T19:28:19.148Z,101892.53
2023-04-27T19:30:47.023Z,101887.28
2023-04-27T19:33:14.911Z,101890.88
2023-04-27T19:35:41.646Z,101884.72
2023-04-27T19:38:08.212Z,101884.75
2023-04-27T19:40:34.961Z,101882.09
2023-04-27T19:43:01.616Z,101891.91
2023-04-27T19:45:28.222Z,101889.28
2023-04-27T19:47:54.794Z,101894.72
2023-04-27T19:50:21.480Z,101894.75
2023-04-27T19:52:48.041Z,101890.31
2023-04-27T19:55:14.706Z,101883.31
2023-04-27T19:57:41.287Z,101888.72
2023-04-27T20:00:11.826Z,101878.06
2023-04-27T20:02:38.661Z,101886.13
2023-04-27T20:05:05.897Z,101871.94
2023-04-27T20:07:32.693Z,101875.53
2023-04-27T20:09:59.230Z,101870.25
2023-04-27T20:12:47.455Z,101879.22
2023-04-27T20:15:12.723Z,101880.16
2023-04-27T20:17:39.299Z,101875.78
2023-04-27T20:20:09.960Z,101875.81
2023-04-27T20:22:37.783Z,101868.72
2023-04-27T20:25:06.273Z,101863.50
2023-04-27T20:27:32.839Z,101864.38
2023-04-27T20:29:59.353Z,101851.13
2023-04-27T20:32:25.956Z,101848.47
2023-04-27T20:34:53.009Z,101852.16
2023-04-27T20:37:19.488Z,101845.09
2023-04-27T20:39:46.477Z,101844.25
2023-04-27T20:42:13.080Z,101843.38
2023-04-27T20:44:39.832Z,101844.38
2023-04-27T20:47:06.458Z,101835.53
2023-04-27T20:49:35.428Z,101832.94
2023-04-27T20:52:02.863Z,101833.84
2023-04-27T20:54:32.675Z,101832.97
2023-04-27T20:57:01.760Z,101818.84
2023-04-27T20:59:28.310Z,101820.63
2023-04-27T21:01:54.878Z,101825.16
2023-04-27T21:04:21.533Z,101811.88
2023-04-27T21:06:48.075Z,101806.56
2023-04-27T21:09:14.562Z,101813.78
2023-04-27T21:11:41.188Z,101806.69
2023-04-27T21:14:07.713Z,101804.09
2023-04-27T21:16:34.307Z,101796.22
2023-04-27T21:19:00.932Z,101797.16
2023-04-27T21:21:27.591Z,101789.19
2023-04-27T21:24:00.825Z,101783.91
2023-04-27T21:26:33.589Z,101780.47
2023-04-27T21:29:01.051Z,101784.91
2023-04-27T21:31:27.604Z,101775.22
2023-04-27T21:33:54.184Z,101774.34
2023-04-27T21:36:21.067Z,101767.28
2023-04-27T21:38:47.611Z,101769.09
2023-04-27T21:41:15.594Z,101775.28
2023-04-27T21:43:42.382Z,101768.25
2023-04-27T21:46:09.331Z,101756.75
2023-04-27T21:48:36.275Z,101757.66
2023-04-27T21:51:02.986Z,101750.59
2023-04-27T21:53:30.567Z,101737.31
2023-04-27T21:55:57.206Z,101740.88
2023-04-27T21:58:24.197Z,101728.47
2023-04-27T22:00:50.859Z,101724.97
2023-04-27T22:03:17.945Z,101713.47
2023-04-27T22:05:45.395Z,101717.97
2023-04-27T22:08:12.169Z,101722.44
2023-04-27T22:10:38.736Z,101726.88
2023-04-27T22:13:17.588Z,101715.34
2023-04-27T22:15:45.886Z,101710.03
2023-04-27T22:18:14.308Z,101708.28
2023-04-27T22:20:42.335Z,101706.50
2023-04-27T22:23:09.442Z,101706.59
2023-04-27T22:25:36.434Z,101710.16
2023-04-27T22:28:03.018Z,101703.13
2023-04-27T22:30:30.967Z,101700.50
2023-04-27T22:32:57.850Z,101690.81
2023-04-27T22:35:27.507Z,101696.19
2023-04-27T22:37:55.758Z,101689.13
2023-04-27T22:40:22.619Z,101685.56
2023-04-27T22:42:49.297Z,101684.72
2023-04-27T22:45:16.236Z,101671.41
2023-04-27T22:47:44.428Z,101673.22
2023-04-27T22:50:12.466Z,101673.25
2023-04-27T22:52:42.095Z,101659.06
2023-04-27T22:55:10.383Z,101670.59
2023-04-27T22:57:37.345Z,101666.22
2023-04-27T23:00:10.830Z,101653.75
2023-04-27T23:02:39.292Z,101658.28
2023-04-27T23:05:07.048Z,101659.19
2023-04-27T23:07:33.792Z,101660.09
2023-04-27T23:10:03.486Z,101658.38
2023-04-27T23:12:31.292Z,101675.25
2023-04-27T23:14:58.715Z,101667.34
2023-04-27T23:17:32.293Z,101661.97
2023-04-27T23:20:11.115Z,101660.31
2023-04-27T23:22:43.905Z,101657.69
2023-04-27T23:25:11.216Z,101658.63
2023-04-27T23:27:37.861Z,101659.53
2023-04-27T23:30:04.901Z,101655.09
2023-04-27T23:32:31.445Z,101636.56
2023-04-27T23:34:57.953Z,101634.81
2023-04-27T23:37:24.882Z,101636.63
2023-04-27T23:39:51.490Z,101624.19
2023-04-27T23:42:18.033Z,101608.28
2023-04-27T23:44:44.598Z,101604.72
2023-04-27T23:47:11.136Z,101602.09
2023-04-27T23:49:37.681Z,101595.09
2023-04-27T23:52:05.020Z,101588.88
2023-04-27T23:54:34.585Z,101582.72
2023-04-27T23:57:01.318Z,101574.81
2023-04-27T23:59:28.012Z,101577.53
